createdAt,value
2022-11-15T00:01:19.519Z,99018.25
2022-11-15T00:03:47.349Z,99012.28
2022-11-15T00:06:14.713Z,99029.97
2022-11-15T00:08:41.856Z,99018.78
2022-11-15T00:11:13.350Z,99012.72
2022-11-15T00:13:41.410Z,99020.22
2022-11-15T00:16:09.870Z,99011.69
2022-11-15T00:18:37.010Z,99015.78
2022-11-15T00:21:08.087Z,99011.44
2022-11-15T00:23:35.240Z,99017.22
2022-11-15T00:26:02.356Z,99011.22
2022-11-15T00:28:29.434Z,99011.09
2022-11-15T00:31:05.732Z,99010.28
2022-11-15T00:33:33.963Z,99016.13
2022-11-15T00:36:10.315Z,99010.16
2022-11-15T00:38:39.778Z,99006.75
2022-11-15T00:41:09.796Z,99004.16
2022-11-15T00:43:37.782Z,99005.81
2022-11-15T00:46:04.851Z,99001.53
2022-11-15T00:48:32.463Z,99010.00
2022-11-15T00:50:59.485Z,99003.16
2022-11-15T00:53:26.509Z,99000.66
2022-11-15T00:55:53.908Z,99003.22
2022-11-15T00:58:21.049Z,99004.84
2022-11-15T01:00:48.099Z,99006.41
2022-11-15T01:03:18.011Z,99003.09
2022-11-15T01:05:44.968Z,99003.13
2022-11-15T01:08:16.592Z,99009.91
2022-11-15T01:10:43.894Z,99003.22
2022-11-15T01:13:10.862Z,99014.16
2022-11-15T01:15:42.211Z,99011.69
2022-11-15T01:18:09.502Z,99009.25
2022-11-15T01:20:43.721Z,99005.72
2022-11-15T01:23:10.919Z,99007.56
2022-11-15T01:25:37.849Z,99004.09
2022-11-15T01:28:05.179Z,99001.53
2022-11-15T01:30:32.090Z,99002.41
2022-11-15T01:32:59.058Z,99004.03
2022-11-15T01:35:26.046Z,99004.03
2022-11-15T01:37:52.965Z,98995.47
2022-11-15T01:40:23.785Z,98984.44
2022-11-15T01:42:50.621Z,98992.09
2022-11-15T01:45:18.040Z,98975.91
2022-11-15T01:47:53.651Z,98970.88
2022-11-15T01:50:32.354Z,98981.09
2022-11-15T01:52:59.290Z,98976.03
2022-11-15T01:55:28.909Z,98966.88
2022-11-15T01:58:02.136Z,98969.44
2022-11-15T02:00:30.945Z,98960.09
2022-11-15T02:02:59.196Z,98964.38
2022-11-15T02:05:26.246Z,98970.38
2022-11-15T02:07:53.283Z,98974.59
2022-11-15T02:10:24.321Z,98966.97
2022-11-15T02:12:53.196Z,98959.47
2022-11-15T02:15:20.523Z,98963.75
2022-11-15T02:18:29.157Z,98969.78
2022-11-15T02:21:10.946Z,98951.34
2022-11-15T02:23:59.232Z,98954.75
2022-11-15T02:26:51.134Z,98950.59
2022-11-15T02:29:51.272Z,98950.69
2022-11-15T02:32:44.193Z,98964.41
2022-11-15T02:35:30.372Z,98967.00
2022-11-15T02:38:27.784Z,98967.94
2022-11-15T02:41:00.472Z,98959.56
2022-11-15T02:44:07.902Z,98964.56
2022-11-15T02:47:04.537Z,98956.09
2022-11-15T02:49:36.220Z,98959.53
2022-11-15T02:52:03.163Z,98951.84
2022-11-15T02:54:33.513Z,98951.84
2022-11-15T02:57:16.455Z,98949.22
2022-11-15T03:00:07.633Z,98951.84
2022-11-15T03:03:09.870Z,98943.38
2022-11-15T03:06:05.102Z,98951.06
2022-11-15T03:08:52.296Z,98941.78
2022-11-15T03:11:24.007Z,98938.38
2022-11-15T03:14:03.786Z,98933.25
2022-11-15T03:16:59.595Z,98931.50
2022-11-15T03:19:51.319Z,98918.88
2022-11-15T03:22:23.424Z,98923.97
2022-11-15T03:24:57.609Z,98929.13
2022-11-15T03:27:31.851Z,98930.84
2022-11-15T03:30:07.043Z,98928.28
2022-11-15T03:32:45.430Z,98935.78
2022-11-15T03:35:38.345Z,98931.53
2022-11-15T03:38:24.038Z,98926.41
2022-11-15T03:41:01.855Z,98925.47
2022-11-15T03:43:42.220Z,98919.50
2022-11-15T03:46:17.324Z,98920.44
2022-11-15T03:49:13.402Z,98917.03
2022-11-15T03:51:41.310Z,98916.25
2022-11-15T03:54:08.519Z,98915.44
2022-11-15T03:56:35.462Z,98915.56
2022-11-15T03:59:02.307Z,98925.75
2022-11-15T04:01:29.262Z,98918.97
2022-11-15T04:03:56.301Z,98910.53
2022-11-15T04:06:23.692Z,98909.81
2022-11-15T04:08:50.646Z,98909.06
2022-11-15T04:11:17.502Z,98914.16
2022-11-15T04:13:44.379Z,98916.75
2022-11-15T04:16:11.411Z,98917.56
2022-11-15T04:18:38.358Z,98916.75
2022-11-15T04:21:23.970Z,98913.38
2022-11-15T04:24:09.144Z,98915.16
2022-11-15T04:26:36.221Z,98908.44
2022-11-15T04:29:21.834Z,98908.44
2022-11-15T04:31:48.843Z,98911.81
2022-11-15T04:34:16.007Z,98920.31
2022-11-15T04:37:01.417Z,98904.22
2022-11-15T04:39:28.266Z,98912.69
2022-11-15T04:41:55.270Z,98914.41
2022-11-15T04:44:22.185Z,98922.00
2022-11-15T04:46:49.211Z,98922.81
2022-11-15T04:49:16.275Z,98926.34
2022-11-15T04:51:45.159Z,98931.38
2022-11-15T04:54:12.224Z,98920.38
2022-11-15T04:56:39.083Z,98927.91
2022-11-15T04:59:06.157Z,98918.53
2022-11-15T05:01:33.248Z,98912.53
2022-11-15T05:04:18.730Z,98915.81
2022-11-15T05:06:47.306Z,98912.53
2022-11-15T05:09:14.996Z,98915.81
2022-11-15T05:11:42.528Z,98914.16
2022-11-15T05:14:09.901Z,98909.09
2022-11-15T05:16:38.261Z,98897.28
2022-11-15T05:19:06.160Z,98903.19
2022-11-15T05:21:34.625Z,98909.25
2022-11-15T05:24:02.405Z,98906.78
2022-11-15T05:26:29.896Z,98898.47
2022-11-15T05:28:59.896Z,98896.00
2022-11-15T05:31:28.391Z,98899.44
2022-11-15T05:33:57.504Z,98896.22
2022-11-15T05:36:42.886Z,98894.63
2022-11-15T05:39:10.236Z,98901.53
2022-11-15T05:41:49.692Z,98895.78
2022-11-15T05:44:22.230Z,98906.03
2022-11-15T05:46:54.526Z,98906.97
2022-11-15T05:49:28.391Z,98902.72
2022-11-15T05:51:55.712Z,98904.50
2022-11-15T05:54:24.522Z,98897.75
2022-11-15T05:56:52.648Z,98900.31
2022-11-15T05:59:20.092Z,98903.72
2022-11-15T06:01:47.441Z,98918.13
2022-11-15T06:04:14.396Z,98912.19
2022-11-15T06:06:41.279Z,98911.47
2022-11-15T06:09:08.179Z,98919.97
2022-11-15T06:11:37.538Z,98927.72
2022-11-15T06:14:04.546Z,98926.06
2022-11-15T06:16:33.642Z,98926.97
2022-11-15T06:19:00.613Z,98925.25
2022-11-15T06:21:31.657Z,98929.47
2022-11-15T06:23:58.543Z,98931.16
2022-11-15T06:26:25.592Z,98931.16
2022-11-15T06:28:52.460Z,98942.16
2022-11-15T06:31:19.447Z,98932.75
2022-11-15T06:33:47.605Z,98934.53
2022-11-15T06:36:17.844Z,98932.03
2022-11-15T06:38:46.236Z,98942.94
2022-11-15T06:41:14.903Z,98948.84
2022-11-15T06:43:42.883Z,98955.50
2022-11-15T06:46:12.220Z,98954.69
2022-11-15T06:48:39.531Z,98947.81
2022-11-15T06:51:13.833Z,98958.00
2022-11-15T06:53:40.844Z,98956.38
2022-11-15T06:56:08.527Z,98963.94
2022-11-15T06:58:36.288Z,98968.94
2022-11-15T07:01:08.461Z,98968.94
2022-11-15T07:03:40.934Z,98968.03
2022-11-15T07:06:10.139Z,98968.03
2022-11-15T07:08:37.385Z,98970.44
2022-11-15T07:11:07.992Z,98970.38
2022-11-15T07:13:37.196Z,98972.00
2022-11-15T07:16:11.099Z,98974.34
2022-11-15T07:18:41.923Z,98982.75
2022-11-15T07:21:12.329Z,98983.44
2022-11-15T07:23:40.391Z,98988.44
2022-11-15T07:26:09.346Z,98985.69
2022-11-15T07:28:36.987Z,98991.53
2022-11-15T07:31:10.071Z,98995.66
2022-11-15T07:33:37.850Z,98994.66
2022-11-15T07:36:07.360Z,98998.78
2022-11-15T07:38:42.251Z,98991.06
2022-11-15T07:41:10.599Z,98991.72
2022-11-15T07:43:37.522Z,99002.63
2022-11-15T07:46:10.611Z,99004.06
2022-11-15T07:48:44.467Z,99003.13
2022-11-15T07:51:15.525Z,99001.22
2022-11-15T07:53:44.609Z,98993.31
2022-11-15T07:56:12.533Z,98997.25
2022-11-15T07:58:39.797Z,98999.25
2022-11-15T08:01:10.408Z,99000.34
2022-11-15T08:03:38.143Z,99003.75
2022-11-15T08:06:05.438Z,99004.38
2022-11-15T08:08:32.382Z,98995.97
2022-11-15T08:10:59.949Z,98984.09
2022-11-15T08:13:26.793Z,98981.56
2022-11-15T08:15:58.882Z,98987.19
2022-11-15T08:18:25.907Z,98973.91
2022-11-15T08:20:52.800Z,98965.53
2022-11-15T08:23:19.795Z,98959.88
2022-11-15T08:25:46.874Z,98976.00
2022-11-15T08:28:13.841Z,98958.31
2022-11-15T08:30:43.734Z,98958.53
2022-11-15T08:33:15.208Z,98952.00
2022-11-15T08:35:44.021Z,98958.97
2022-11-15T08:38:11.382Z,98951.69
2022-11-15T08:40:38.857Z,98950.19
2022-11-15T08:43:05.961Z,98954.88
2022-11-15T08:45:36.427Z,98955.09
2022-11-15T08:48:06.946Z,98947.28
2022-11-15T08:50:34.026Z,98951.75
2022-11-15T08:53:09.164Z,98959.63
2022-11-15T08:55:40.468Z,98949.84
2022-11-15T08:58:07.863Z,98948.44
2022-11-15T09:00:35.008Z,98943.97
2022-11-15T09:03:06.466Z,98940.53
2022-11-15T09:05:36.393Z,98934.81
2022-11-15T09:08:13.854Z,98927.66
2022-11-15T09:10:50.243Z,98923.59
2022-11-15T09:13:17.432Z,98914.16
2022-11-15T09:15:44.522Z,98913.75
2022-11-15T09:18:11.368Z,98910.53
2022-11-15T09:20:38.218Z,98911.16
2022-11-15T09:23:06.413Z,98908.19
2022-11-15T09:25:34.146Z,98906.44
2022-11-15T09:28:01.071Z,98905.31
2022-11-15T09:30:28.332Z,98886.34
2022-11-15T09:32:55.138Z,98881.78
2022-11-15T09:35:21.910Z,98881.31
2022-11-15T09:37:53.545Z,98884.41
2022-11-15T09:40:23.660Z,98884.16
2022-11-15T09:43:25.205Z,98875.06
2022-11-15T09:46:24.941Z,98872.38
2022-11-15T09:49:02.942Z,98874.47
2022-11-15T09:51:48.165Z,98873.66
2022-11-15T09:57:55.437Z,98872.59
2022-11-15T10:00:51.512Z,98865.78
2022-11-15T10:03:28.937Z,98853.41
2022-11-15T10:06:03.670Z,98857.06
2022-11-15T10:08:56.715Z,98868.88
2022-11-15T10:11:38.300Z,98859.28
2022-11-15T10:14:29.608Z,98865.25
2022-11-15T10:17:14.673Z,98861.38
2022-11-15T10:20:14.501Z,98856.13
2022-11-15T10:22:48.893Z,98849.09
2022-11-15T10:25:25.718Z,98851.00
2022-11-15T10:28:17.314Z,98843.22
2022-11-15T10:30:48.384Z,98841.56
2022-11-15T10:33:37.207Z,98836.41
2022-11-15T10:36:10.066Z,98821.19
2022-11-15T10:38:55.382Z,98817.66
2022-11-15T10:41:28.415Z,98822.97
2022-11-15T10:44:19.903Z,98810.38
2022-11-15T10:46:55.300Z,98805.75
2022-11-15T10:49:28.833Z,98800.38
2022-11-15T10:52:20.802Z,98797.88
2022-11-15T10:54:55.097Z,98786.09
2022-11-15T10:57:26.706Z,98791.16
2022-11-15T11:00:28.696Z,98794.19
2022-11-15T11:03:06.601Z,98783.59
2022-11-15T11:05:42.769Z,98795.78
2022-11-15T11:08:15.271Z,98780.56
2022-11-15T11:11:03.583Z,98786.38
2022-11-15T11:13:37.139Z,98787.03
2022-11-15T11:16:15.858Z,98780.66
2022-11-15T11:19:33.052Z,98768.06
2022-11-15T11:22:28.412Z,98769.16
2022-11-15T11:25:40.701Z,98763.75
2022-11-15T11:28:19.301Z,98764.34
2022-11-15T11:31:16.926Z,98750.16
2022-11-15T11:34:02.418Z,98743.47
2022-11-15T11:36:38.209Z,98725.63
2022-11-15T11:40:10.926Z,98723.94
2022-11-15T11:43:03.492Z,98727.34
2022-11-15T11:46:14.081Z,98712.72
2022-11-15T11:49:10.814Z,98703.09
2022-11-15T11:51:50.422Z,98696.09
2022-11-15T11:54:37.281Z,98699.56
2022-11-15T11:57:16.426Z,98697.53
2022-11-15T12:00:16.689Z,98689.31
2022-11-15T12:03:08.984Z,98687.31
2022-11-15T12:05:52.692Z,98677.72
2022-11-15T12:08:46.868Z,98680.25
2022-11-15T12:11:50.528Z,98674.59
2022-11-15T12:15:00.602Z,98676.34
2022-11-15T12:17:34.654Z,98663.50
2022-11-15T12:20:10.290Z,98653.75
2022-11-15T12:23:04.759Z,98645.22
2022-11-15T12:26:11.056Z,98643.75
2022-11-15T12:29:07.332Z,98646.53
2022-11-15T12:31:44.776Z,98651.84
2022-11-15T12:34:23.485Z,98648.72
2022-11-15T12:36:52.423Z,98651.34
2022-11-15T12:39:20.255Z,98639.75
2022-11-15T12:41:59.965Z,98643.53
2022-11-15T12:44:32.619Z,98634.31
2022-11-15T12:46:59.339Z,98638.63
2022-11-15T12:49:28.824Z,98629.88
2022-11-15T12:51:58.404Z,98621.81
2022-11-15T12:54:25.368Z,98611.28
2022-11-15T12:57:04.104Z,98607.44
2022-11-15T12:59:58.709Z,98608.50
2022-11-15T13:02:32.667Z,98602.78
2022-11-15T13:05:20.422Z,98598.75
2022-11-15T13:07:47.096Z,98594.69
2022-11-15T13:10:13.780Z,98596.50
2022-11-15T13:12:46.429Z,98591.63
2022-11-15T13:15:13.407Z,98589.38
2022-11-15T13:17:51.454Z,98585.53
2022-11-15T13:20:20.771Z,98573.00
2022-11-15T13:22:52.947Z,98560.59
2022-11-15T13:25:40.545Z,98562.72
2022-11-15T13:28:12.828Z,98561.31
2022-11-15T13:30:40.753Z,98560.56
2022-11-15T13:33:25.443Z,98543.69
2022-11-15T13:35:58.769Z,98552.53
2022-11-15T13:38:25.604Z,98541.00
2022-11-15T13:40:52.661Z,98543.16
2022-11-15T13:43:35.398Z,98533.19
2022-11-15T13:46:13.532Z,98529.22
2022-11-15T13:48:43.009Z,98519.19
2022-11-15T13:51:51.991Z,98523.28
2022-11-15T13:54:32.592Z,98515.16
2022-11-15T13:57:18.389Z,98508.66
2022-11-15T14:00:08.103Z,98506.75
2022-11-15T14:02:37.358Z,98507.94
2022-11-15T14:05:22.375Z,98487.00
2022-11-15T14:08:22.902Z,98495.91
2022-11-15T14:10:49.828Z,98484.28
2022-11-15T14:13:32.566Z,98485.97
2022-11-15T14:16:19.260Z,98479.34
2022-11-15T14:18:52.967Z,98467.66
2022-11-15T14:21:21.454Z,98465.16
2022-11-15T14:23:50.015Z,98467.72
2022-11-15T14:26:34.774Z,98455.75
2022-11-15T14:29:28.229Z,98453.34
2022-11-15T14:32:14.089Z,98461.09
2022-11-15T14:34:41.113Z,98452.50
2022-11-15T14:37:35.950Z,98449.06
2022-11-15T14:40:06.596Z,98448.16
2022-11-15T14:42:33.961Z,98436.25
2022-11-15T14:45:00.839Z,98435.34
2022-11-15T14:47:27.792Z,98432.03
2022-11-15T14:49:54.623Z,98425.41
2022-11-15T14:52:35.261Z,98428.78
2022-11-15T14:55:15.433Z,98422.75
2022-11-15T14:57:42.288Z,98434.81
2022-11-15T15:00:10.943Z,98424.63
2022-11-15T15:02:38.606Z,98422.16
2022-11-15T15:05:21.627Z,98423.13
2022-11-15T15:07:49.225Z,98420.66
2022-11-15T15:10:40.173Z,98417.13
2022-11-15T15:13:06.605Z,98412.97
2022-11-15T15:15:38.139Z,98408.00
2022-11-15T15:18:06.330Z,98400.53
2022-11-15T15:20:33.936Z,98405.81
2022-11-15T15:23:00.748Z,98396.66
2022-11-15T15:25:34.518Z,98386.84
2022-11-15T15:28:02.418Z,98386.28
2022-11-15T15:30:31.821Z,98390.97
2022-11-15T15:32:58.794Z,98376.81
2022-11-15T15:35:33.472Z,98380.47
2022-11-15T15:38:01.169Z,98382.59
2022-11-15T15:40:32.327Z,98381.16
2022-11-15T15:43:00.434Z,98376.41
2022-11-15T15:45:29.083Z,98376.75
2022-11-15T15:47:56.475Z,98378.69
2022-11-15T15:50:31.211Z,98378.16
2022-11-15T15:53:01.448Z,98375.78
2022-11-15T15:55:29.673Z,98372.59
2022-11-15T15:57:56.642Z,98367.88
2022-11-15T16:00:26.255Z,98375.66
2022-11-15T16:02:54.544Z,98369.84
2022-11-15T16:05:22.501Z,98366.63
2022-11-15T16:07:49.579Z,98364.16
2022-11-15T16:10:30.200Z,98360.13
2022-11-15T16:12:59.077Z,98364.53
2022-11-15T16:15:30.882Z,98361.16
2022-11-15T16:18:01.118Z,98356.06
2022-11-15T16:20:38.314Z,98353.66
2022-11-15T16:23:09.819Z,98356.28
2022-11-15T16:25:50.303Z,98358.88
2022-11-15T16:28:24.812Z,98354.53
2022-11-15T16:31:05.999Z,98353.72
2022-11-15T16:33:33.977Z,98352.00
2022-11-15T16:36:01.504Z,98347.69
2022-11-15T16:38:28.490Z,98359.50
2022-11-15T16:40:55.360Z,98361.25
2022-11-15T16:43:22.220Z,98362.06
2022-11-15T16:45:51.239Z,98362.22
2022-11-15T16:48:28.854Z,98357.38
2022-11-15T16:51:05.072Z,98365.94
2022-11-15T16:53:32.153Z,98366.22
2022-11-15T16:55:58.997Z,98365.53
2022-11-15T16:58:26.028Z,98358.00
2022-11-15T17:00:55.080Z,98360.81
2022-11-15T17:03:24.444Z,98360.38
2022-11-15T17:05:52.063Z,98352.16
2022-11-15T17:08:21.771Z,98351.69
2022-11-15T17:10:48.909Z,98351.09
2022-11-15T17:13:15.733Z,98364.16
2022-11-15T17:15:42.651Z,98359.53
2022-11-15T17:18:13.431Z,98353.16
2022-11-15T17:20:41.679Z,98345.81
2022-11-15T17:23:14.610Z,98349.56
2022-11-15T17:25:42.443Z,98345.50
2022-11-15T17:28:10.364Z,98341.41
2022-11-15T17:30:37.345Z,98333.91
2022-11-15T17:33:05.185Z,98335.81
2022-11-15T17:35:33.106Z,98332.63
2022-11-15T17:37:59.947Z,98340.41
2022-11-15T17:40:26.774Z,98326.16
2022-11-15T17:42:53.752Z,98315.31
2022-11-15T17:45:20.628Z,98323.16
2022-11-15T17:47:47.478Z,98324.19
2022-11-15T17:50:14.941Z,98328.63
2022-11-15T17:52:41.899Z,98328.91
2022-11-15T17:55:09.528Z,98331.63
2022-11-15T17:57:36.442Z,98324.03
2022-11-15T18:00:04.888Z,98326.66
2022-11-15T18:02:31.735Z,98316.59
2022-11-15T18:04:58.652Z,98323.44
2022-11-15T18:07:25.690Z,98316.69
2022-11-15T18:09:53.050Z,98320.13
2022-11-15T18:12:19.866Z,98316.81
2022-11-15T18:14:46.798Z,98317.63
2022-11-15T18:17:13.613Z,98316.81
2022-11-15T18:19:40.420Z,98315.22
2022-11-15T18:22:09.805Z,98308.47
2022-11-15T18:24:38.685Z,98301.66
2022-11-15T18:27:06.894Z,98312.59
2022-11-15T18:29:37.510Z,98304.00
2022-11-15T18:32:11.626Z,98297.16
2022-11-15T18:34:38.768Z,98295.56
2022-11-15T18:37:05.714Z,98297.19
2022-11-15T18:39:32.934Z,98285.34
2022-11-15T18:42:00.348Z,98291.97
2022-11-15T18:44:30.202Z,98277.56
2022-11-15T18:46:57.705Z,98279.25
2022-11-15T18:49:24.609Z,98267.38
2022-11-15T18:51:51.411Z,98275.84
2022-11-15T18:54:18.362Z,98269.88
2022-11-15T18:56:46.954Z,98264.69
2022-11-15T18:59:15.436Z,98267.91
2022-11-15T19:02:01.616Z,98268.03
2022-11-15T19:04:29.393Z,98267.97
2022-11-15T19:06:56.457Z,98265.47
2022-11-15T19:09:29.688Z,98267.91
2022-11-15T19:12:00.111Z,98265.34
2022-11-15T19:14:37.141Z,98257.78
2022-11-15T19:17:08.860Z,98253.56
2022-11-15T19:19:42.480Z,98257.06
2022-11-15T19:22:23.299Z,98249.47
2022-11-15T19:25:09.551Z,98252.09
2022-11-15T19:27:48.464Z,98237.69
2022-11-15T19:30:27.094Z,98237.69
2022-11-15T19:36:52.880Z,98248.97
2022-11-15T19:39:38.264Z,98234.63
2022-11-15T19:42:16.822Z,98235.41
2022-11-15T19:44:59.462Z,98235.34
2022-11-15T19:47:39.502Z,98236.97
2022-11-15T19:50:28.837Z,98238.72
2022-11-15T19:56:05.922Z,98232.00
2022-11-15T19:59:10.974Z,98231.13
2022-11-15T20:01:41.519Z,98226.78
2022-11-15T20:04:16.470Z,98224.94
2022-11-15T20:06:44.682Z,98232.53
2022-11-15T20:09:17.551Z,98224.00
2022-11-15T20:12:24.723Z,98223.19
2022-11-15T20:14:59.410Z,98214.75
2022-11-15T20:17:29.165Z,98221.66
2022-11-15T20:20:07.356Z,98215.59
2022-11-15T20:22:44.220Z,98205.50
2022-11-15T20:25:39.430Z,98213.28
2022-11-15T20:28:10.271Z,98207.41
2022-11-15T20:30:44.970Z,98217.50
2022-11-15T20:33:18.646Z,98216.88
2022-11-15T20:35:52.026Z,98209.28
2022-11-15T20:38:28.646Z,98203.41
2022-11-15T20:41:37.523Z,98210.25
2022-11-15T20:44:26.391Z,98215.50
2022-11-15T20:49:52.250Z,98211.59
2022-11-15T20:52:23.187Z,98213.38
2022-11-15T20:54:50.212Z,98205.91
2022-11-15T20:57:17.489Z,98211.00
2022-11-15T20:59:46.685Z,98211.16
2022-11-15T21:02:16.052Z,98198.53
2022-11-15T21:04:43.170Z,98202.78
2022-11-15T21:07:10.268Z,98196.09
2022-11-15T21:09:56.041Z,98196.81
2022-11-15T21:12:24.010Z,98187.50
2022-11-15T21:14:52.572Z,98195.22
2022-11-15T21:17:19.616Z,98191.84
2022-11-15T21:19:47.334Z,98190.19
2022-11-15T21:22:15.275Z,98192.66
2022-11-15T21:24:42.712Z,98175.78
2022-11-15T21:27:09.665Z,98180.06
2022-11-15T21:29:37.827Z,98171.59
2022-11-15T21:32:09.957Z,98174.06
2022-11-15T21:34:37.728Z,98179.28
2022-11-15T21:37:06.062Z,98165.84
2022-11-15T21:39:33.938Z,98164.13
2022-11-15T21:42:00.769Z,98171.00
2022-11-15T21:44:29.378Z,98165.91
2022-11-15T21:47:14.305Z,98162.78
2022-11-15T21:49:41.298Z,98149.34
2022-11-15T21:52:08.179Z,98151.94
2022-11-15T21:54:39.164Z,98153.69
2022-11-15T21:57:06.092Z,98146.97
2022-11-15T21:59:33.079Z,98152.81
2022-11-15T22:02:15.294Z,98152.00
2022-11-15T22:04:42.237Z,98144.50
2022-11-15T22:07:09.276Z,98135.94
2022-11-15T22:09:41.009Z,98131.72
2022-11-15T22:12:07.943Z,98130.13
2022-11-15T22:14:34.767Z,98130.13
2022-11-15T22:17:01.832Z,98130.88
2022-11-15T22:19:28.650Z,98124.13
2022-11-15T22:21:55.587Z,98121.47
2022-11-15T22:24:22.597Z,98120.69
2022-11-15T22:26:49.523Z,98121.59
2022-11-15T22:29:16.428Z,98113.88
2022-11-15T22:31:43.624Z,98108.03
2022-11-15T22:34:10.518Z,98107.06
2022-11-15T22:36:58.415Z,98101.25
2022-11-15T22:39:25.295Z,98102.13
2022-11-15T22:41:53.390Z,98094.47
2022-11-15T22:44:20.374Z,98099.44
2022-11-15T22:46:47.231Z,98091.06
2022-11-15T22:49:14.103Z,98101.09
2022-11-15T22:51:41.166Z,98097.78
2022-11-15T22:54:08.648Z,98093.53
2022-11-15T22:56:35.600Z,98097.09
2022-11-15T22:59:02.621Z,98092.69
2022-11-15T23:01:29.616Z,98091.09
2022-11-15T23:03:56.915Z,98094.47
2022-11-15T23:06:23.887Z,98084.47
2022-11-15T23:08:50.952Z,98082.78
2022-11-15T23:11:36.553Z,98087.06
2022-11-15T23:14:03.695Z,98079.63
2022-11-15T23:16:36.693Z,98085.53
2022-11-15T23:19:10.229Z,98084.59
2022-11-15T23:22:04.028Z,98086.31
2022-11-15T23:24:33.144Z,98082.22
2022-11-15T23:27:09.431Z,98087.22
2022-11-15T23:29:56.032Z,98077.03
2022-11-15T23:32:41.860Z,98087.16
2022-11-15T23:35:09.313Z,98073.63
2022-11-15T23:37:36.290Z,98063.59
2022-11-15T23:40:03.564Z,98056.78
2022-11-15T23:42:30.580Z,98075.50
2022-11-15T23:44:57.402Z,98074.66
2022-11-15T23:47:24.370Z,98061.19
2022-11-15T23:49:51.280Z,98060.34
2022-11-15T23:52:18.641Z,98058.75
2022-11-15T23:54:45.578Z,98057.09
2022-11-15T23:57:12.816Z,98057.19
2022-11-15T23:59:45.010Z,98051.34
